Time;durP1;ratioP1;P1;durP2;ratioP2;P2;SDS_P1;SDS_P2;PMS_P1;PMS_P2;Temp;Humidity;BMP_temperature;BMP_pressure;BME280_temperature;BME280_humidity;BME280_pressure;Samples;Min_cycle;Max_cycle;Signal;HPM_P1;HPM_P2
2024/05/04 00:01:20;;;;;;;1.50;1.40;;;;;;;;;;5524708;26;20373;-78
2024/05/04 00:03:46;;;;;;;1.63;1.42;;;;;;;;;;5524824;26;20413;-78
2024/05/04 00:06:12;;;;;;;1.98;1.50;;;;;;;;;;5523937;26;20339;-78
2024/05/04 00:08:38;;;;;;;1.80;1.50;;;;;;;;;;5523913;26;20340;-78
2024/05/04 00:11:04;;;;;;;1.85;1.50;;;;;;;;;;5524592;26;20384;-78
2024/05/04 00:13:30;;;;;;;1.58;1.30;;;;;;;;;;5524422;26;20409;-78
2024/05/04 00:15:56;;;;;;;1.30;1.20;;;;;;;;;;5524207;26;20390;-78
2024/05/04 00:18:23;;;;;;;1.40;1.30;;;;;;;;;;5523659;26;20380;-78
2024/05/04 00:20:49;;;;;;;1.55;1.45;;;;;;;;;;5523833;26;20829;-78
2024/05/04 00:23:17;;;;;;;1.50;1.40;;;;;;;;;;5524398;26;20836;-78
2024/05/04 00:25:43;;;;;;;1.87;1.63;;;;;;;;;;5524095;26;20511;-78
2024/05/04 00:28:09;;;;;;;1.58;1.48;;;;;;;;;;5523856;26;20379;-78
2024/05/04 00:30:36;;;;;;;1.70;1.50;;;;;;;;;;5525774;26;20876;-78
2024/05/04 00:33:01;;;;;;;2.03;1.40;;;;;;;;;;5527775;26;20339;-78
2024/05/04 00:35:28;;;;;;;1.98;1.52;;;;;;;;;;5527385;26;20417;-78
2024/05/04 00:37:53;;;;;;;1.55;1.20;;;;;;;;;;5527852;26;20416;-78
2024/05/04 00:40:19;;;;;;;1.48;1.38;;;;;;;;;;5527784;26;20339;-78
2024/05/04 00:42:46;;;;;;;1.43;1.20;;;;;;;;;;5527713;26;20375;-78
2024/05/04 00:45:12;;;;;;;1.40;1.30;;;;;;;;;;5527488;26;20335;-78
2024/05/04 00:47:38;;;;;;;2.05;1.30;;;;;;;;;;5527373;26;20335;-78
2024/05/04 00:50:05;;;;;;;1.40;1.30;;;;;;;;;;5527037;26;21013;-78
2024/05/04 00:52:32;;;;;;;1.58;1.40;;;;;;;;;;5527221;26;20367;-78
2024/05/04 00:54:58;;;;;;;1.33;1.23;;;;;;;;;;5520192;26;20896;-78
2024/05/04 00:57:25;;;;;;;2.20;1.38;;;;;;;;;;5518210;26;20331;-78
2024/05/04 00:59:52;;;;;;;1.50;1.40;;;;;;;;;;5527442;26;20331;-78
2024/05/04 01:02:18;;;;;;;2.10;1.40;;;;;;;;;;5527321;26;20335;-78
2024/05/04 01:04:47;;;;;;;2.30;1.60;;;;;;;;;;5527002;26;20383;-78
2024/05/04 01:07:13;;;;;;;1.40;1.30;;;;;;;;;;5527008;26;20339;-78
2024/05/04 01:09:40;;;;;;;2.00;1.50;;;;;;;;;;5527595;26;20375;-78
2024/05/04 01:12:07;;;;;;;1.60;1.50;;;;;;;;;;5527387;26;20410;-78
2024/05/04 01:14:33;;;;;;;1.50;1.38;;;;;;;;;;5520553;26;20332;-78
2024/05/04 01:16:59;;;;;;;1.85;1.42;;;;;;;;;;5526620;26;20320;-78
2024/05/04 01:19:31;;;;;;;1.67;1.40;;;;;;;;;;5526887;26;20425;-78
2024/05/04 01:21:57;;;;;;;2.58;1.65;;;;;;;;;;5526453;26;20362;-78
2024/05/04 01:24:23;;;;;;;1.95;1.30;;;;;;;;;;5526762;26;20369;-78
2024/05/04 01:26:49;;;;;;;1.40;1.30;;;;;;;;;;5527079;26;20347;-78
2024/05/04 01:29:15;;;;;;;1.60;1.30;;;;;;;;;;5526926;26;20377;-78
2024/05/04 01:31:41;;;;;;;1.70;1.30;;;;;;;;;;5526864;26;20347;-78
2024/05/04 01:34:07;;;;;;;2.08;1.50;;;;;;;;;;5526492;26;20339;-78
2024/05/04 01:36:33;;;;;;;1.75;1.42;;;;;;;;;;5527102;26;20327;-78
2024/05/04 01:39:00;;;;;;;1.50;1.27;;;;;;;;;;5526694;26;20347;-78
2024/05/04 01:41:27;;;;;;;1.58;1.40;;;;;;;;;;5525280;26;20401;-78
2024/05/04 01:43:53;;;;;;;1.63;1.40;;;;;;;;;;5526361;26;20324;-78
2024/05/04 01:46:19;;;;;;;1.60;1.50;;;;;;;;;;5526801;26;20706;-78
2024/05/04 01:48:46;;;;;;;2.28;1.50;;;;;;;;;;5526826;26;20414;-78
2024/05/04 01:51:12;;;;;;;1.35;1.25;;;;;;;;;;5526669;26;20865;-78
2024/05/04 01:53:40;;;;;;;1.60;1.27;;;;;;;;;;5526786;26;20362;-78
2024/05/04 01:56:09;;;;;;;1.43;1.30;;;;;;;;;;5526564;26;20435;-78
2024/05/04 01:58:39;;;;;;;1.23;1.13;;;;;;;;;;5526792;26;20324;-78
2024/05/04 02:01:05;;;;;;;1.50;1.40;;;;;;;;;;5526220;26;20677;-77
2024/05/04 02:03:31;;;;;;;1.30;1.20;;;;;;;;;;5526298;26;20698;-78
2024/05/04 02:05:57;;;;;;;1.30;1.20;;;;;;;;;;5526262;26;20331;-77
2024/05/04 02:08:23;;;;;;;1.40;1.30;;;;;;;;;;5526018;26;20374;-77
2024/05/04 02:10:49;;;;;;;2.83;1.48;;;;;;;;;;5526145;26;20884;-78
2024/05/04 02:13:15;;;;;;;1.55;1.30;;;;;;;;;;5522735;26;20340;-78
2024/05/04 02:15:41;;;;;;;1.85;1.23;;;;;;;;;;5508795;26;20326;-77
2024/05/04 02:18:07;;;;;;;1.58;1.20;;;;;;;;;;5494743;26;20374;-78
2024/05/04 02:20:33;;;;;;;1.40;1.30;;;;;;;;;;5523260;26;20335;-78
2024/05/04 02:22:59;;;;;;;1.63;1.40;;;;;;;;;;5525784;26;20365;-78
2024/05/04 02:25:25;;;;;;;1.40;1.30;;;;;;;;;;5526247;26;20328;-78
2024/05/04 02:27:51;;;;;;;1.45;1.33;;;;;;;;;;5526720;26;20335;-78
2024/05/04 02:30:17;;;;;;;1.40;1.30;;;;;;;;;;5526040;26;20995;-78
2024/05/04 02:32:43;;;;;;;1.20;1.20;;;;;;;;;;5526129;26;20344;-78
2024/05/04 02:35:09;;;;;;;1.45;1.35;;;;;;;;;;5526087;26;20332;-78
2024/05/04 02:37:35;;;;;;;1.70;1.40;;;;;;;;;;5525483;26;20362;-78
2024/05/04 02:40:01;;;;;;;1.43;1.33;;;;;;;;;;5525572;26;20755;-78
2024/05/04 02:42:27;;;;;;;1.75;1.50;;;;;;;;;;5525322;26;20350;-78
2024/05/04 02:44:54;;;;;;;1.42;1.33;;;;;;;;;;5525380;26;20368;-78
2024/05/04 02:47:20;;;;;;;1.70;1.52;;;;;;;;;;5525470;26;20372;-78
2024/05/04 02:49:46;;;;;;;1.90;1.30;;;;;;;;;;5525366;26;20376;-78
2024/05/04 02:52:12;;;;;;;1.40;1.30;;;;;;;;;;5525426;26;20332;-78
2024/05/04 02:54:38;;;;;;;1.63;1.52;;;;;;;;;;5524925;26;20358;-77
2024/05/04 02:57:04;;;;;;;1.50;1.40;;;;;;;;;;5524964;26;20335;-78
2024/05/04 02:59:30;;;;;;;2.15;1.60;;;;;;;;;;5525170;26;20328;-78
2024/05/04 03:01:56;;;;;;;1.83;1.67;;;;;;;;;;5524999;26;20665;-78
2024/05/04 03:04:22;;;;;;;1.70;1.40;;;;;;;;;;5525257;26;20816;-78
2024/05/04 03:06:48;;;;;;;1.67;1.40;;;;;;;;;;5525405;26;20347;-78
2024/05/04 03:09:14;;;;;;;1.90;1.48;;;;;;;;;;5524941;26;20717;-78
2024/05/04 03:11:40;;;;;;;1.83;1.30;;;;;;;;;;5525240;26;20308;-78
2024/05/04 03:14:08;;;;;;;1.50;1.35;;;;;;;;;;5519273;26;20704;-78
2024/05/04 03:16:33;;;;;;;1.45;1.35;;;;;;;;;;5525144;26;20427;-78
2024/05/04 03:18:59;;;;;;;2.10;1.30;;;;;;;;;;5525051;26;20916;-77
2024/05/04 03:21:25;;;;;;;1.40;1.30;;;;;;;;;;5525706;26;20355;-78
2024/05/04 03:23:51;;;;;;;1.63;1.52;;;;;;;;;;5524844;26;20963;-77
2024/05/04 03:26:17;;;;;;;3.00;1.60;;;;;;;;;;5525035;26;20363;-78
2024/05/04 03:28:43;;;;;;;1.80;1.70;;;;;;;;;;5524676;26;20448;-78
2024/05/04 03:31:10;;;;;;;1.60;1.50;;;;;;;;;;5525259;26;20892;-78
2024/05/04 03:33:40;;;;;;;1.70;1.60;;;;;;;;;;5524992;26;20323;-78
2024/05/04 03:36:07;;;;;;;1.60;1.50;;;;;;;;;;5524982;26;20673;-78
2024/05/04 03:38:33;;;;;;;1.50;1.40;;;;;;;;;;5524898;26;20331;-78
2024/05/04 03:40:59;;;;;;;1.63;1.52;;;;;;;;;;5524892;26;20394;-78
2024/05/04 03:43:25;;;;;;;2.08;1.75;;;;;;;;;;5511199;26;20315;-78
2024/05/04 03:45:51;;;;;;;1.85;1.73;;;;;;;;;;5506145;26;21136;-78
2024/05/04 03:48:17;;;;;;;1.65;1.55;;;;;;;;;;5502723;26;20401;-78
2024/05/04 03:50:43;;;;;;;1.92;1.77;;;;;;;;;;5525210;26;20657;-78
2024/05/04 03:53:09;;;;;;;1.50;1.40;;;;;;;;;;5524412;26;20420;-78
2024/05/04 03:55:35;;;;;;;1.75;1.65;;;;;;;;;;5524324;26;20360;-78
2024/05/04 03:58:01;;;;;;;2.67;1.50;;;;;;;;;;5524495;26;20931;-78
2024/05/04 04:00:27;;;;;;;1.75;1.63;;;;;;;;;;5524454;26;20367;-78
2024/05/04 04:02:53;;;;;;;1.40;1.30;;;;;;;;;;5524100;26;20507;-78
2024/05/04 04:05:19;;;;;;;1.52;1.42;;;;;;;;;;5523790;26;20355;-78
2024/05/04 04:07:47;;;;;;;1.83;1.73;;;;;;;;;;5524386;26;20425;-78
2024/05/04 04:10:14;;;;;;;1.70;1.60;;;;;;;;;;5524408;26;20763;-78
2024/05/04 04:12:40;;;;;;;1.77;1.67;;;;;;;;;;5524035;26;20354;-78
2024/05/04 04:15:06;;;;;;;1.88;1.77;;;;;;;;;;5524280;26;20356;-78
2024/05/04 04:17:36;;;;;;;2.13;1.95;;;;;;;;;;5524131;26;20323;-78
2024/05/04 04:20:03;;;;;;;1.60;1.50;;;;;;;;;;5524004;26;20375;-78
2024/05/04 04:22:29;;;;;;;1.70;1.60;;;;;;;;;;5524310;26;20772;-78
2024/05/04 04:24:55;;;;;;;1.70;1.60;;;;;;;;;;5524044;26;20316;-78
2024/05/04 04:27:21;;;;;;;1.65;1.55;;;;;;;;;;5524075;26;20384;-78
2024/05/04 04:29:47;;;;;;;2.13;1.73;;;;;;;;;;5524029;26;20355;-78
2024/05/04 04:32:13;;;;;;;1.77;1.67;;;;;;;;;;5523898;26;20327;-78
2024/05/04 04:34:39;;;;;;;1.88;1.67;;;;;;;;;;5523488;26;20316;-78
2024/05/04 04:37:04;;;;;;;1.70;1.50;;;;;;;;;;5523347;26;20816;-78
2024/05/04 04:39:30;;;;;;;1.60;1.40;;;;;;;;;;5523406;26;20331;-78
2024/05/04 04:41:56;;;;;;;2.03;1.63;;;;;;;;;;5523800;26;20312;-78
2024/05/04 04:44:22;;;;;;;1.90;1.80;;;;;;;;;;5523205;26;20844;-77
2024/05/04 04:46:49;;;;;;;1.73;1.63;;;;;;;;;;5523561;26;20332;-78
2024/05/04 04:49:15;;;;;;;2.40;1.60;;;;;;;;;;5522980;26;20863;-78
2024/05/04 04:51:41;;;;;;;1.80;1.70;;;;;;;;;;5523420;26;20327;-78
2024/05/04 04:54:07;;;;;;;1.83;1.73;;;;;;;;;;5522877;26;20331;-77
2024/05/04 04:56:33;;;;;;;1.65;1.55;;;;;;;;;;5507461;26;20433;-78
2024/05/04 04:58:59;;;;;;;1.60;1.50;;;;;;;;;;5523402;26;20363;-78
2024/05/04 05:01:25;;;;;;;2.28;1.80;;;;;;;;;;5523583;26;20327;-78
2024/05/04 05:03:51;;;;;;;1.80;1.70;;;;;;;;;;5523873;26;20483;-78
2024/05/04 05:06:17;;;;;;;2.65;1.77;;;;;;;;;;5523100;26;20344;-78
2024/05/04 05:08:43;;;;;;;2.42;2.13;;;;;;;;;;5522571;26;20327;-78
2024/05/04 05:11:08;;;;;;;2.20;2.10;;;;;;;;;;5516481;26;20330;-77
2024/05/04 05:13:34;;;;;;;2.40;1.90;;;;;;;;;;5522624;26;20451;-78
2024/05/04 05:16:00;;;;;;;2.70;2.50;;;;;;;;;;5523266;26;20705;-77
2024/05/04 05:18:26;;;;;;;2.47;2.10;;;;;;;;;;5525027;26;20319;-77
2024/05/04 05:20:52;;;;;;;2.40;2.20;;;;;;;;;;5525378;26;20437;-77
2024/05/04 05:23:18;;;;;;;2.55;2.35;;;;;;;;;;5524429;26;20697;-77
2024/05/04 05:25:44;;;;;;;2.60;2.40;;;;;;;;;;5525331;26;20324;-77
2024/05/04 05:28:12;;;;;;;2.70;2.50;;;;;;;;;;5492781;26;20331;-77
2024/05/04 05:30:39;;;;;;;3.00;2.80;;;;;;;;;;5525233;26;20363;-77
2024/05/04 05:33:05;;;;;;;3.40;3.10;;;;;;;;;;5525174;26;20339;-78
2024/05/04 05:35:31;;;;;;;3.35;3.15;;;;;;;;;;5526016;26;21157;-78
2024/05/04 05:37:57;;;;;;;3.78;3.47;;;;;;;;;;5526671;26;20367;-78
2024/05/04 05:40:23;;;;;;;3.97;3.58;;;;;;;;;;5525731;26;20701;-78
2024/05/04 05:42:48;;;;;;;4.22;3.70;;;;;;;;;;5526276;26;20327;-78
2024/05/04 05:45:14;;;;;;;3.30;3.10;;;;;;;;;;5526194;26;20770;-78
2024/05/04 05:47:40;;;;;;;4.03;3.72;;;;;;;;;;5525246;26;20375;-77
2024/05/04 05:50:06;;;;;;;4.07;3.77;;;;;;;;;;5524721;26;20331;-77
2024/05/04 05:52:32;;;;;;;4.70;3.78;;;;;;;;;;5524640;26;20367;-77
2024/05/04 05:54:59;;;;;;;3.60;3.30;;;;;;;;;;5524621;26;20320;-77
2024/05/04 05:57:24;;;;;;;3.30;3.03;;;;;;;;;;5524681;26;20842;-77
2024/05/04 05:59:51;;;;;;;4.00;3.60;;;;;;;;;;5524695;26;20383;-78
2024/05/04 06:02:16;;;;;;;3.88;3.47;;;;;;;;;;5524740;26;20319;-77
2024/05/04 06:04:42;;;;;;;3.80;3.50;;;;;;;;;;5524777;26;20487;-77
2024/05/04 06:07:08;;;;;;;3.40;3.17;;;;;;;;;;5524797;26;20319;-77
2024/05/04 06:09:34;;;;;;;3.67;3.47;;;;;;;;;;5524420;26;20829;-77
2024/05/04 06:12:00;;;;;;;4.00;3.70;;;;;;;;;;5524723;26;20367;-77
2024/05/04 06:14:26;;;;;;;4.10;3.70;;;;;;;;;;5525586;26;20343;-77
2024/05/04 06:16:52;;;;;;;7.17;6.57;;;;;;;;;;5524671;26;20484;-77
2024/05/04 06:19:18;;;;;;;7.80;7.13;;;;;;;;;;5524837;26;20332;-78
2024/05/04 06:21:44;;;;;;;9.90;9.10;;;;;;;;;;5524634;26;20328;-78
2024/05/04 06:24:10;;;;;;;6.43;5.93;;;;;;;;;;5525351;26;20331;-78
2024/05/04 06:26:37;;;;;;;6.95;6.38;;;;;;;;;;5520523;26;20360;-78
2024/05/04 06:29:03;;;;;;;8.65;7.85;;;;;;;;;;5520856;26;20400;-78
2024/05/04 06:31:29;;;;;;;7.50;6.90;;;;;;;;;;5524196;26;20331;-78
2024/05/04 06:33:55;;;;;;;5.93;5.50;;;;;;;;;;5525024;26;20363;-78
2024/05/04 06:36:21;;;;;;;6.68;6.07;;;;;;;;;;5524163;26;20403;-78
2024/05/04 06:38:47;;;;;;;6.22;5.78;;;;;;;;;;5524548;26;20323;-78
2024/05/04 06:41:13;;;;;;;6.70;6.20;;;;;;;;;;5524407;26;20413;-78
2024/05/04 06:43:39;;;;;;;6.78;6.18;;;;;;;;;;5524305;26;20344;-78
2024/05/04 06:46:07;;;;;;;7.00;6.50;;;;;;;;;;5524401;26;20880;-78
2024/05/04 06:48:33;;;;;;;7.45;6.95;;;;;;;;;;5524333;26;20350;-78
2024/05/04 06:50:59;;;;;;;7.82;7.15;;;;;;;;;;5524317;26;20421;-78
2024/05/04 06:53:25;;;;;;;8.05;7.40;;;;;;;;;;5525136;26;20783;-79
2024/05/04 06:55:51;;;;;;;8.13;7.43;;;;;;;;;;5525472;26;20374;-79
2024/05/04 06:58:17;;;;;;;7.43;6.93;;;;;;;;;;5525355;26;20331;-79
2024/05/04 07:00:43;;;;;;;6.70;6.10;;;;;;;;;;5526068;26;20688;-79
2024/05/04 07:03:09;;;;;;;6.40;5.80;;;;;;;;;;5525175;26;20339;-79
2024/05/04 07:05:35;;;;;;;6.75;6.15;;;;;;;;;;5525737;26;20332;-79
2024/05/04 07:08:01;;;;;;;6.32;5.72;;;;;;;;;;5525396;26;20362;-79
2024/05/04 07:10:27;;;;;;;6.40;5.90;;;;;;;;;;5525046;26;20458;-79
2024/05/04 07:12:53;;;;;;;6.18;5.65;;;;;;;;;;5519198;26;20328;-80
2024/05/04 07:15:19;;;;;;;5.90;5.45;;;;;;;;;;5525188;26;20758;-80
2024/05/04 07:17:45;;;;;;;5.95;5.55;;;;;;;;;;5525243;26;20327;-80
2024/05/04 07:20:11;;;;;;;5.50;5.10;;;;;;;;;;5524215;26;20358;-80
2024/05/04 07:22:37;;;;;;;5.30;4.90;;;;;;;;;;5525440;26;20716;-80
2024/05/04 07:25:03;;;;;;;5.00;4.60;;;;;;;;;;5524559;26;20458;-80
2024/05/04 07:27:29;;;;;;;5.40;5.00;;;;;;;;;;5525068;26;20808;-80
2024/05/04 07:29:55;;;;;;;5.32;4.82;;;;;;;;;;5525752;26;20401;-79
2024/05/04 07:32:21;;;;;;;5.10;4.70;;;;;;;;;;5524723;26;20844;-79
2024/05/04 07:34:47;;;;;;;5.60;5.20;;;;;;;;;;5524921;26;20331;-78
2024/05/04 07:37:13;;;;;;;5.20;4.80;;;;;;;;;;5524316;26;20393;-78
2024/05/04 07:39:39;;;;;;;5.00;4.50;;;;;;;;;;5523617;26;20343;-79
2024/05/04 07:42:07;;;;;;;4.50;4.20;;;;;;;;;;5524827;26;20441;-79
2024/05/04 07:44:33;;;;;;;4.30;3.92;;;;;;;;;;5524254;26;20328;-78
2024/05/04 07:47:01;;;;;;;3.83;3.53;;;;;;;;;;5524525;26;20331;-78
2024/05/04 07:49:27;;;;;;;4.00;2.50;;;;;;;;;;5523871;26;20387;-78
2024/05/04 07:51:53;;;;;;;2.65;2.45;;;;;;;;;;5524839;26;20981;-79
2024/05/04 07:54:19;;;;;;;2.95;2.60;;;;;;;;;;5524110;26;20424;-78
2024/05/04 07:56:45;;;;;;;2.50;2.30;;;;;;;;;;5508899;26;20413;-78
2024/05/04 07:59:11;;;;;;;2.47;2.10;;;;;;;;;;5524578;26;20336;-79
2024/05/04 08:01:38;;;;;;;3.75;2.03;;;;;;;;;;5529166;26;20336;-81
2024/05/04 08:04:04;;;;;;;2.85;1.70;;;;;;;;;;5532435;26;20339;-82
2024/05/04 08:06:30;;;;;;;2.50;2.07;;;;;;;;;;5531064;26;20375;-82
2024/05/04 08:08:56;;;;;;;2.60;2.25;;;;;;;;;;5494293;26;20335;-82
2024/05/04 08:11:22;;;;;;;2.65;2.03;;;;;;;;;;5529632;26;20336;-82
2024/05/04 08:13:48;;;;;;;2.20;2.10;;;;;;;;;;5530843;26;20347;-82
2024/05/04 08:16:14;;;;;;;3.08;2.03;;;;;;;;;;5529282;26;20424;-82
2024/05/04 08:18:40;;;;;;;2.35;2.05;;;;;;;;;;5528511;26;20335;-83
2024/05/04 08:21:06;;;;;;;2.38;2.17;;;;;;;;;;5530958;26;20368;-83
2024/05/04 08:23:32;;;;;;;2.35;2.15;;;;;;;;;;5529483;26;20371;-83
2024/05/04 08:25:58;;;;;;;2.28;2.08;;;;;;;;;;5530110;26;20328;-83
2024/05/04 08:28:24;;;;;;;2.90;2.00;;;;;;;;;;5527892;26;20420;-83
2024/05/04 08:30:50;;;;;;;2.47;2.28;;;;;;;;;;5527902;26;20327;-83
2024/05/04 08:33:16;;;;;;;2.78;2.30;;;;;;;;;;5529182;26;20335;-83
2024/05/04 08:35:42;;;;;;;2.00;1.90;;;;;;;;;;5529664;26;20419;-83
2024/05/04 08:38:10;;;;;;;2.05;1.95;;;;;;;;;;5527067;26;20320;-83
2024/05/04 08:40:36;;;;;;;2.87;2.53;;;;;;;;;;5529053;26;20336;-83
2024/05/04 08:43:02;;;;;;;2.63;2.35;;;;;;;;;;5528898;26;20825;-83
2024/05/04 08:45:29;;;;;;;2.60;2.40;;;;;;;;;;5529202;26;20327;-83
2024/05/04 08:47:56;;;;;;;1.80;1.70;;;;;;;;;;5529308;26;20376;-83
2024/05/04 08:50:23;;;;;;;2.37;2.00;;;;;;;;;;5529418;26;20410;-83
2024/05/04 08:52:49;;;;;;;2.20;2.00;;;;;;;;;;5533681;26;20412;-83
2024/05/04 08:55:15;;;;;;;3.65;2.13;;;;;;;;;;5521984;26;20444;-83
2024/05/04 08:57:42;;;;;;;2.10;1.90;;;;;;;;;;5528516;26;20327;-83
2024/05/04 09:00:08;;;;;;;2.10;1.90;;;;;;;;;;5532601;26;20483;-83
2024/05/04 09:02:35;;;;;;;1.83;1.60;;;;;;;;;;5533228;26;20742;-83
2024/05/04 09:05:02;;;;;;;2.35;1.50;;;;;;;;;;5532791;26;20395;-83
2024/05/04 09:07:28;;;;;;;1.27;1.17;;;;;;;;;;5529521;26;20844;-83
2024/05/04 09:09:54;;;;;;;1.90;1.40;;;;;;;;;;5532156;26;20547;-83
2024/05/04 09:12:30;;;;;;;2.40;1.50;;;;;;;;;;5532781;26;20382;-83
2024/05/04 09:14:56;;;;;;;1.83;1.58;;;;;;;;;;5533007;26;20319;-84
2024/05/04 09:17:22;;;;;;;1.98;1.40;;;;;;;;;;5533050;26;20356;-84
2024/05/04 09:19:48;;;;;;;1.77;1.50;;;;;;;;;;5532520;26;20387;-83
2024/05/04 09:22:14;;;;;;;1.50;1.40;;;;;;;;;;5532129;26;20955;-83
2024/05/04 09:24:40;;;;;;;2.05;1.60;;;;;;;;;;5532082;26;20804;-84
2024/05/04 09:27:06;;;;;;;1.67;1.30;;;;;;;;;;5532444;26;20360;-84
2024/05/04 09:29:35;;;;;;;1.67;1.57;;;;;;;;;;5531390;26;20704;-84
2024/05/04 09:32:01;;;;;;;1.73;1.50;;;;;;;;;;5532244;26;20324;-84
2024/05/04 09:34:29;;;;;;;3.40;1.60;;;;;;;;;;5532367;26;20429;-84
2024/05/04 09:36:56;;;;;;;2.08;1.45;;;;;;;;;;5499545;26;20324;-84
2024/05/04 09:39:22;;;;;;;2.78;1.40;;;;;;;;;;5533147;26;20999;-84
2024/05/04 09:41:48;;;;;;;1.33;1.23;;;;;;;;;;5532117;26;20328;-84
2024/05/04 09:44:14;;;;;;;3.42;1.33;;;;;;;;;;5532544;26;20865;-84
2024/05/04 09:46:41;;;;;;;1.60;1.50;;;;;;;;;;5494545;26;20672;-84
2024/05/04 09:49:08;;;;;;;1.60;1.33;;;;;;;;;;5526807;26;20869;-84
2024/05/04 09:51:34;;;;;;;2.30;1.60;;;;;;;;;;5532350;26;20324;-84
2024/05/04 09:54:00;;;;;;;1.70;1.60;;;;;;;;;;5531913;26;20441;-84
2024/05/04 09:56:28;;;;;;;1.75;1.40;;;;;;;;;;5531949;26;20376;-84
2024/05/04 09:58:54;;;;;;;1.63;1.33;;;;;;;;;;5531910;26;20343;-84
2024/05/04 10:01:22;;;;;;;1.45;1.33;;;;;;;;;;5532133;26;20335;-84
2024/05/04 10:03:51;;;;;;;1.90;1.35;;;;;;;;;;5531299;26;20381;-83
2024/05/04 10:06:18;;;;;;;1.60;1.30;;;;;;;;;;5532394;26;20312;-83
2024/05/04 10:08:44;;;;;;;1.60;1.50;;;;;;;;;;5532539;26;20712;-83
2024/05/04 10:11:13;;;;;;;2.10;1.70;;;;;;;;;;5531319;26;20331;-80
2024/05/04 10:13:41;;;;;;;1.60;1.50;;;;;;;;;;5528383;26;20696;-80
2024/05/04 10:16:07;;;;;;;1.70;1.20;;;;;;;;;;5528678;26;20335;-80
2024/05/04 10:18:40;;;;;;;1.50;1.40;;;;;;;;;;5528000;26;20398;-80
2024/05/04 10:21:06;;;;;;;1.73;1.30;;;;;;;;;;5528034;26;20327;-80
2024/05/04 10:23:42;;;;;;;1.63;1.40;;;;;;;;;;5527838;26;20374;-80
2024/05/04 10:26:17;;;;;;;1.50;1.40;;;;;;;;;;5528238;26;20375;-80
2024/05/04 10:28:43;;;;;;;1.35;0.90;;;;;;;;;;5528170;26;20336;-81
2024/05/04 10:31:09;;;;;;;1.25;1.10;;;;;;;;;;5527471;26;20364;-80
2024/05/04 10:33:35;;;;;;;1.80;1.00;;;;;;;;;;5527590;26;20355;-81
2024/05/04 10:36:01;;;;;;;2.63;0.80;;;;;;;;;;5528748;26;20319;-80
2024/05/04 10:38:27;;;;;;;0.90;0.90;;;;;;;;;;5527715;26;20818;-79
2024/05/04 10:40:53;;;;;;;1.50;1.40;;;;;;;;;;5527577;26;20308;-80
2024/05/04 10:43:19;;;;;;;1.58;1.48;;;;;;;;;;5526833;26;20372;-80
2024/05/04 10:45:45;;;;;;;1.30;1.20;;;;;;;;;;5526375;26;20702;-80
2024/05/04 10:48:12;;;;;;;2.60;1.60;;;;;;;;;;5527643;26;20327;-81
2024/05/04 10:50:39;;;;;;;2.00;1.90;;;;;;;;;;5527233;26;20759;-81
2024/05/04 10:53:09;;;;;;;2.72;2.10;;;;;;;;;;5527928;26;20324;-80
2024/05/04 10:55:36;;;;;;;2.10;1.90;;;;;;;;;;5527397;26;20331;-82
2024/05/04 10:58:02;;;;;;;2.10;2.00;;;;;;;;;;5527450;26;20319;-81
2024/05/04 11:00:28;;;;;;;1.65;1.55;;;;;;;;;;5527855;26;20408;-81
2024/05/04 11:02:54;;;;;;;1.60;1.40;;;;;;;;;;5527121;26;20332;-81
2024/05/04 11:05:20;;;;;;;1.27;1.10;;;;;;;;;;5527798;26;20320;-81
2024/05/04 11:07:46;;;;;;;1.77;1.30;;;;;;;;;;5528260;26;20311;-81
2024/05/04 11:10:12;;;;;;;4.18;1.17;;;;;;;;;;5523980;26;20320;-80
2024/05/04 11:12:38;;;;;;;1.63;1.40;;;;;;;;;;5528273;26;20824;-81
2024/05/04 11:15:04;;;;;;;1.40;1.30;;;;;;;;;;5525928;26;20331;-81
2024/05/04 11:17:30;;;;;;;1.17;1.08;;;;;;;;;;5527813;26;20713;-81
2024/05/04 11:20:23;;;;;;;1.88;1.08;;;;;;;;;;5527983;26;20352;-85
2024/05/04 11:22:50;;;;;;;0.90;0.90;;;;;;;;;;5530596;26;20410;-84
2024/05/04 11:25:16;;;;;;;1.27;0.98;;;;;;;;;;5527439;26;20396;-82
2024/05/04 11:27:45;;;;;;;0.85;0.85;;;;;;;;;;5528534;26;20390;-82
2024/05/04 11:30:11;;;;;;;1.27;1.15;;;;;;;;;;5527945;26;21228;-82
2024/05/04 11:32:37;;;;;;;0.80;0.80;;;;;;;;;;5528244;26;20899;-82
2024/05/04 11:35:04;;;;;;;1.70;1.00;;;;;;;;;;5528060;26;20319;-82
2024/05/04 11:37:29;;;;;;;1.87;1.07;;;;;;;;;;5528368;26;20791;-82
2024/05/04 11:39:55;;;;;;;2.25;1.10;;;;;;;;;;5526147;26;20323;-81
2024/05/04 11:42:21;;;;;;;0.98;0.90;;;;;;;;;;5526100;26;20335;-82
2024/05/04 11:44:47;;;;;;;1.20;1.00;;;;;;;;;;5528496;26;20691;-83
2024/05/04 11:47:13;;;;;;;0.95;0.90;;;;;;;;;;5527402;26;20327;-82
2024/05/04 11:49:39;;;;;;;0.80;0.68;;;;;;;;;;5529666;26;20773;-84
2024/05/04 11:52:05;;;;;;;0.93;0.87;;;;;;;;;;5495780;26;20453;-84
2024/05/04 11:54:31;;;;;;;1.60;0.90;;;;;;;;;;5527664;26;20366;-84
2024/05/04 11:56:57;;;;;;;2.60;1.00;;;;;;;;;;5514145;26;20350;-84
2024/05/04 11:59:23;;;;;;;1.20;1.00;;;;;;;;;;5529245;26;20327;-84
2024/05/04 12:01:49;;;;;;;1.65;1.08;;;;;;;;;;5528219;26;20938;-83
2024/05/04 12:04:15;;;;;;;1.10;1.00;;;;;;;;;;5496439;26;20340;-84
2024/05/04 12:06:41;;;;;;;1.10;0.90;;;;;;;;;;5528426;26;20312;-83
2024/05/04 12:09:07;;;;;;;1.30;1.02;;;;;;;;;;5495780;26;20331;-83
2024/05/04 12:11:33;;;;;;;1.20;0.95;;;;;;;;;;5529633;26;20454;-83
2024/05/04 12:13:59;;;;;;;1.45;1.05;;;;;;;;;;5528341;26;20327;-84
2024/05/04 12:16:25;;;;;;;1.60;0.90;;;;;;;;;;5497420;26;20374;-84
2024/05/04 12:18:51;;;;;;;1.05;1.00;;;;;;;;;;5528777;26;20433;-84
2024/05/04 12:21:17;;;;;;;1.20;0.90;;;;;;;;;;5529296;26;20367;-84
2024/05/04 12:23:43;;;;;;;1.45;1.10;;;;;;;;;;5530165;26;20323;-83
2024/05/04 12:26:09;;;;;;;0.82;0.80;;;;;;;;;;5530244;26;20820;-81
2024/05/04 12:28:36;;;;;;;0.80;0.80;;;;;;;;;;5526394;26;20359;-81
2024/05/04 12:31:03;;;;;;;2.38;1.13;;;;;;;;;;5524248;26;20327;-81
2024/05/04 12:33:49;;;;;;;1.33;1.10;;;;;;;;;;5523996;26;20376;-81
2024/05/04 12:36:18;;;;;;;1.33;0.90;;;;;;;;;;5523954;26;20331;-81
2024/05/04 12:38:44;;;;;;;3.33;1.00;;;;;;;;;;5490923;26;20370;-81
2024/05/04 12:41:10;;;;;;;1.08;0.90;;;;;;;;;;5526603;26;20327;-81
2024/05/04 12:43:36;;;;;;;1.00;1.00;;;;;;;;;;5526606;26;20421;-81
2024/05/04 12:46:02;;;;;;;0.80;0.80;;;;;;;;;;5525981;26;20336;-81
2024/05/04 12:48:31;;;;;;;0.97;0.70;;;;;;;;;;5493348;26;20336;-81
2024/05/04 12:50:57;;;;;;;1.30;1.10;;;;;;;;;;5524837;26;20331;-81
2024/05/04 12:53:23;;;;;;;1.88;0.70;;;;;;;;;;5525723;26;20324;-81
2024/05/04 12:55:51;;;;;;;1.17;0.80;;;;;;;;;;5510017;26;20330;-82
2024/05/04 12:58:17;;;;;;;1.10;0.75;;;;;;;;;;5526793;26;20328;-83
2024/05/04 13:00:43;;;;;;;1.42;0.80;;;;;;;;;;5527121;26;20352;-84
2024/05/04 13:03:08;;;;;;;1.02;0.90;;;;;;;;;;5527855;26;20347;-84
2024/05/04 13:05:34;;;;;;;1.67;0.90;;;;;;;;;;5526925;26;20371;-84
2024/05/04 13:08:00;;;;;;;1.92;0.80;;;;;;;;;;5527677;26;20344;-84
2024/05/04 13:10:26;;;;;;;0.70;0.70;;;;;;;;;;5526243;26;20364;-83
2024/05/04 13:12:52;;;;;;;1.60;0.70;;;;;;;;;;5525121;26;20336;-83
2024/05/04 13:15:18;;;;;;;0.60;0.50;;;;;;;;;;5523083;26;20444;-83
2024/05/04 13:17:44;;;;;;;0.60;0.60;;;;;;;;;;5521639;26;20372;-83
2024/05/04 13:20:10;;;;;;;0.50;0.50;;;;;;;;;;5527513;26;20319;-83
2024/05/04 13:22:36;;;;;;;0.80;0.70;;;;;;;;;;5527529;26;20328;-83
2024/05/04 13:25:02;;;;;;;2.10;1.60;;;;;;;;;;5527811;26;20327;-83
2024/05/04 13:27:28;;;;;;;0.60;0.60;;;;;;;;;;5526056;26;20726;-83
2024/05/04 13:29:54;;;;;;;0.73;0.50;;;;;;;;;;5527421;26;20375;-83
2024/05/04 13:32:21;;;;;;;1.35;0.50;;;;;;;;;;5527362;26;20928;-83
2024/05/04 13:34:47;;;;;;;0.70;0.70;;;;;;;;;;5527757;26;20402;-83
2024/05/04 13:37:13;;;;;;;1.00;0.50;;;;;;;;;;5526372;26;20335;-83
2024/05/04 13:39:39;;;;;;;0.60;0.60;;;;;;;;;;5528632;26;20367;-83
2024/05/04 13:42:05;;;;;;;0.77;0.50;;;;;;;;;;5529792;26;20360;-83
2024/05/04 13:44:31;;;;;;;1.00;0.50;;;;;;;;;;5496043;26;20904;-84
2024/05/04 13:46:57;;;;;;;1.20;0.50;;;;;;;;;;5531006;26;20339;-83
2024/05/04 13:49:23;;;;;;;1.10;0.60;;;;;;;;;;5530941;26;20324;-83
2024/05/04 13:51:49;;;;;;;0.50;0.40;;;;;;;;;;5529261;26;20957;-83
2024/05/04 13:54:15;;;;;;;0.70;0.57;;;;;;;;;;5529588;26;20328;-84
2024/05/04 13:56:42;;;;;;;4.15;3.33;;;;;;;;;;5530639;26;20335;-82
2024/05/04 13:59:08;;;;;;;0.80;0.60;;;;;;;;;;5530029;26;20739;-82
2024/05/04 14:01:34;;;;;;;1.27;0.50;;;;;;;;;;5530460;26;20436;-83
2024/05/04 14:04:00;;;;;;;2.03;0.63;;;;;;;;;;5530421;26;20805;-83
2024/05/04 14:06:26;;;;;;;0.98;0.57;;;;;;;;;;5529554;26;20432;-83
2024/05/04 14:08:52;;;;;;;1.90;0.40;;;;;;;;;;5530618;26;20429;-83
2024/05/04 14:11:18;;;;;;;1.00;0.55;;;;;;;;;;5530611;26;20371;-83
2024/05/04 14:13:47;;;;;;;1.85;0.50;;;;;;;;;;5530474;26;20324;-84
2024/05/04 14:16:13;;;;;;;1.83;1.17;;;;;;;;;;5527741;26;20364;-84
2024/05/04 14:18:41;;;;;;;3.33;1.00;;;;;;;;;;5530384;26;20832;-83
2024/05/04 14:21:07;;;;;;;0.52;0.50;;;;;;;;;;5530471;26;20332;-84
2024/05/04 14:23:33;;;;;;;0.47;0.47;;;;;;;;;;5530460;26;20335;-84
2024/05/04 14:25:59;;;;;;;1.50;1.38;;;;;;;;;;5530489;26;21060;-84
2024/05/04 14:28:25;;;;;;;1.05;0.80;;;;;;;;;;5530026;26;20347;-84
2024/05/04 14:30:51;;;;;;;3.58;0.60;;;;;;;;;;5530335;26;20693;-83
2024/05/04 14:33:17;;;;;;;2.00;0.60;;;;;;;;;;5529665;26;20380;-83
2024/05/04 14:35:43;;;;;;;0.47;0.40;;;;;;;;;;5530120;26;20327;-84
2024/05/04 14:38:08;;;;;;;0.50;0.50;;;;;;;;;;5530870;26;20722;-83